Terminal Aerodrome Forecast
Issued by NWS

Home | Current Version | Previous Version | Text Only | Print | Product List | Glossary Off
Versions: 1 2 3 4 5 6 7 8 9 10 11 12 13 14 15 16 17 18 19 20 21 22 23 24 25 26 27 28 29 30 31

000
FTUS43 KLOT 272338
TAFORD
TAF
KORD 272338Z 2800/2906 05012KT 6SM -SHRA BKN025 OVC060
      TEMPO 2800/2801 3SM SHRA
     FM280100 05009KT P6SM BKN025 OVC050
     FM280500 09008KT 6SM BR VCSH SCT009 OVC015
     FM280900 09010G15KT 5SM -SHRA BR SCT008 OVC012
     FM281200 07012G16KT P6SM SCT007 OVC010
     FM281600 06014G20KT P6SM VCSH OVC015
     FM282100 05011KT P6SM OVC015=

USA.gov is the U.S. government's official web portal to all federal, state and local government web resources and services.